Time;durP1;ratioP1;P1;durP2;ratioP2;P2;SDS_P1;SDS_P2;PMS_P1;PMS_P2;Temp;Humidity;BMP_temperature;BMP_pressure;BME280_temperature;BME280_humidity;BME280_pressure;Samples;Min_cycle;Max_cycle;Signal;HPM_P1;HPM_P2
2023/06/19 00:01:20;;;;;;;10.50;6.47;;;;;;;;;;5106328;28;20043;-72
2023/06/19 00:03:46;;;;;;;9.10;7.28;;;;;;;;;;5107632;27;20071;-72
2023/06/19 00:06:12;;;;;;;10.65;6.95;;;;;;;;;;5113530;27;20039;-72
2023/06/19 00:08:41;;;;;;;11.07;7.32;;;;;;;;;;5106366;27;20134;-72
2023/06/19 00:11:07;;;;;;;10.50;7.30;;;;;;;;;;5107640;27;20402;-73
2023/06/19 00:13:33;;;;;;;13.75;7.57;;;;;;;;;;5123248;27;20071;-73
2023/06/19 00:16:00;;;;;;;9.75;7.25;;;;;;;;;;5117328;27;20043;-73
2023/06/19 00:18:27;;;;;;;9.25;6.10;;;;;;;;;;5114420;27;20101;-73
2023/06/19 00:20:55;;;;;;;10.40;6.80;;;;;;;;;;5096315;28;20074;-72
2023/06/19 00:23:22;;;;;;;9.57;6.88;;;;;;;;;;5108067;27;20462;-72
2023/06/19 00:25:48;;;;;;;9.75;6.32;;;;;;;;;;5107013;27;20123;-73
2023/06/19 00:28:14;;;;;;;7.90;6.47;;;;;;;;;;5107132;28;20063;-72
2023/06/19 00:30:41;;;;;;;11.25;6.47;;;;;;;;;;5106794;28;20048;-72
2023/06/19 00:33:08;;;;;;;10.73;6.25;;;;;;;;;;5107594;28;20050;-72
2023/06/19 00:35:34;;;;;;;10.57;6.32;;;;;;;;;;5123518;28;20040;-72
2023/06/19 00:38:00;;;;;;;9.52;7.10;;;;;;;;;;5113012;28;20040;-72
2023/06/19 00:40:30;;;;;;;7.55;5.95;;;;;;;;;;5117628;28;20127;-72
2023/06/19 00:42:56;;;;;;;11.82;6.18;;;;;;;;;;5118218;28;20047;-72
2023/06/19 00:45:24;;;;;;;9.13;6.68;;;;;;;;;;5119670;27;20458;-72
2023/06/19 00:47:54;;;;;;;8.20;6.25;;;;;;;;;;5116068;28;20093;-72
2023/06/19 00:50:20;;;;;;;7.47;6.13;;;;;;;;;;5114664;28;20031;-72
2023/06/19 00:52:47;;;;;;;11.48;6.40;;;;;;;;;;5116094;28;20187;-72
2023/06/19 00:55:13;;;;;;;9.50;6.68;;;;;;;;;;5123583;28;20041;-72
2023/06/19 00:57:40;;;;;;;13.20;6.60;;;;;;;;;;5127899;28;20398;-72
2023/06/19 01:00:07;;;;;;;10.88;6.65;;;;;;;;;;5121922;28;20086;-73
2023/06/19 01:02:34;;;;;;;8.45;6.55;;;;;;;;;;5124705;28;20490;-70
2023/06/19 01:05:00;;;;;;;10.38;6.38;;;;;;;;;;5120744;28;20066;-70
2023/06/19 01:07:30;;;;;;;9.55;6.70;;;;;;;;;;5118224;28;20047;-70
2023/06/19 01:10:00;;;;;;;12.50;6.88;;;;;;;;;;5130591;27;20387;-70
2023/06/19 01:12:34;;;;;;;8.77;6.88;;;;;;;;;;5123904;27;20046;-70
2023/06/19 01:15:01;;;;;;;9.63;6.75;;;;;;;;;;5121109;27;20047;-70
2023/06/19 01:17:28;;;;;;;8.23;5.85;;;;;;;;;;5132826;27;20363;-70
2023/06/19 01:19:55;;;;;;;10.73;6.65;;;;;;;;;;5119441;27;20455;-70
2023/06/19 01:22:30;;;;;;;8.25;6.38;;;;;;;;;;5105141;28;20505;-70
2023/06/19 01:25:00;;;;;;;9.40;7.03;;;;;;;;;;5124187;27;20070;-70
2023/06/19 01:27:30;;;;;;;8.90;6.25;;;;;;;;;;5132373;27;20051;-70
2023/06/19 01:29:57;;;;;;;11.43;6.35;;;;;;;;;;5125494;27;20061;-70
2023/06/19 01:32:26;;;;;;;10.48;7.28;;;;;;;;;;5113344;27;20036;-70
2023/06/19 01:34:55;;;;;;;9.70;7.07;;;;;;;;;;5130188;27;20219;-70
2023/06/19 01:37:21;;;;;;;10.27;6.35;;;;;;;;;;5127193;27;20043;-70
2023/06/19 01:39:47;;;;;;;9.27;6.60;;;;;;;;;;5125907;27;20043;-70
2023/06/19 01:42:15;;;;;;;9.52;6.45;;;;;;;;;;5125880;27;20110;-70
2023/06/19 01:44:41;;;;;;;9.82;5.97;;;;;;;;;;5117661;27;20737;-70
2023/06/19 01:47:09;;;;;;;8.35;5.45;;;;;;;;;;5124095;27;20042;-70
2023/06/19 01:49:35;;;;;;;8.60;6.10;;;;;;;;;;5124591;27;20058;-70
2023/06/19 01:52:01;;;;;;;10.45;6.78;;;;;;;;;;5108233;27;20039;-70
2023/06/19 01:54:27;;;;;;;8.60;5.70;;;;;;;;;;5108903;27;20044;-70
2023/06/19 01:56:53;;;;;;;8.05;6.05;;;;;;;;;;5106370;27;20483;-70
2023/06/19 01:59:21;;;;;;;8.93;5.97;;;;;;;;;;5096749;27;20168;-70
2023/06/19 02:01:47;;;;;;;7.97;6.03;;;;;;;;;;5111447;27;20048;-70
2023/06/19 02:04:13;;;;;;;9.07;6.60;;;;;;;;;;5115176;27;20042;-70
2023/06/19 02:06:39;;;;;;;8.70;6.68;;;;;;;;;;5118087;27;20123;-70
2023/06/19 02:09:07;;;;;;;9.25;6.40;;;;;;;;;;5106276;27;20409;-70
2023/06/19 02:11:33;;;;;;;9.20;7.03;;;;;;;;;;5110323;27;20053;-70
2023/06/19 02:13:59;;;;;;;8.60;6.57;;;;;;;;;;5108081;27;20150;-70
2023/06/19 02:16:25;;;;;;;9.30;5.93;;;;;;;;;;5108499;27;20176;-70
2023/06/19 02:18:52;;;;;;;21.25;7.28;;;;;;;;;;5110259;27;20049;-70
2023/06/19 02:21:18;;;;;;;9.95;6.70;;;;;;;;;;5108334;27;20102;-70
2023/06/19 02:23:44;;;;;;;10.80;6.63;;;;;;;;;;5112507;27;20051;-70
2023/06/19 02:26:10;;;;;;;8.40;6.30;;;;;;;;;;5112682;27;20435;-70
2023/06/19 02:28:36;;;;;;;13.00;6.68;;;;;;;;;;5134351;27;20452;-70
2023/06/19 02:31:03;;;;;;;10.10;6.75;;;;;;;;;;5113547;27;20043;-70
2023/06/19 02:33:29;;;;;;;8.18;6.63;;;;;;;;;;5115126;27;20395;-70
2023/06/19 02:35:58;;;;;;;9.38;6.53;;;;;;;;;;5115209;27;20050;-70
2023/06/19 02:38:29;;;;;;;9.07;6.45;;;;;;;;;;5118874;27;20126;-70
2023/06/19 02:40:57;;;;;;;8.07;5.80;;;;;;;;;;5133143;27;20126;-70
2023/06/19 02:43:23;;;;;;;9.57;6.38;;;;;;;;;;5115630;27;20050;-70
2023/06/19 02:45:49;;;;;;;12.73;6.60;;;;;;;;;;5131451;27;20043;-70
2023/06/19 02:48:16;;;;;;;8.45;5.82;;;;;;;;;;5112690;27;20054;-70
2023/06/19 02:50:42;;;;;;;9.18;7.15;;;;;;;;;;5098733;27;20043;-70
2023/06/19 02:53:08;;;;;;;9.88;6.68;;;;;;;;;;5139978;27;20035;-70
2023/06/19 02:55:35;;;;;;;8.63;6.43;;;;;;;;;;5137713;27;20042;-70
2023/06/19 02:58:01;;;;;;;9.23;6.57;;;;;;;;;;5126131;27;20039;-70
2023/06/19 03:00:28;;;;;;;12.32;6.78;;;;;;;;;;5150487;27;20035;-70
2023/06/19 03:02:54;;;;;;;9.98;7.03;;;;;;;;;;5108316;27;20078;-70
2023/06/19 03:05:20;;;;;;;9.43;7.07;;;;;;;;;;5133662;27;20455;-70
2023/06/19 03:07:47;;;;;;;9.60;6.82;;;;;;;;;;5129692;27;20053;-70
2023/06/19 03:10:13;;;;;;;12.15;6.63;;;;;;;;;;5133804;27;20080;-70
2023/06/19 03:12:39;;;;;;;14.00;6.75;;;;;;;;;;5123131;27;20047;-70
2023/06/19 03:15:05;;;;;;;10.18;6.75;;;;;;;;;;5132879;27;20030;-70
2023/06/19 03:17:32;;;;;;;9.57;6.78;;;;;;;;;;5111214;27;20070;-70
2023/06/19 03:19:58;;;;;;;9.30;7.28;;;;;;;;;;5135202;27;20043;-70
2023/06/19 03:22:24;;;;;;;8.32;6.63;;;;;;;;;;5118866;27;20070;-70
2023/06/19 03:24:50;;;;;;;9.90;6.88;;;;;;;;;;5132734;27;20035;-70
2023/06/19 03:27:16;;;;;;;9.38;7.82;;;;;;;;;;5142053;27;20107;-70
2023/06/19 03:29:42;;;;;;;9.57;6.78;;;;;;;;;;5116391;27;20126;-70
2023/06/19 03:32:08;;;;;;;9.93;6.55;;;;;;;;;;5110148;27;20054;-70
2023/06/19 03:34:35;;;;;;;12.88;7.22;;;;;;;;;;5112859;27;20198;-70
2023/06/19 03:37:01;;;;;;;11.98;7.55;;;;;;;;;;5134848;27;20050;-70
2023/06/19 03:39:27;;;;;;;10.77;7.80;;;;;;;;;;5116104;27;20410;-69
2023/06/19 03:41:53;;;;;;;13.13;7.88;;;;;;;;;;5129928;27;20096;-70
2023/06/19 03:44:19;;;;;;;9.48;6.93;;;;;;;;;;5134280;27;20073;-70
2023/06/19 03:46:47;;;;;;;10.95;6.88;;;;;;;;;;5135385;27;20053;-70
2023/06/19 03:49:13;;;;;;;11.35;6.72;;;;;;;;;;5128306;27;20395;-70
2023/06/19 03:51:39;;;;;;;10.10;7.03;;;;;;;;;;5131952;27;20070;-70
2023/06/19 03:54:06;;;;;;;10.00;7.20;;;;;;;;;;5112842;27;20038;-70
2023/06/19 03:56:32;;;;;;;9.82;6.45;;;;;;;;;;5111291;27;20127;-70
2023/06/19 03:58:58;;;;;;;10.32;6.47;;;;;;;;;;5114057;27;20050;-70
2023/06/19 04:01:24;;;;;;;9.00;6.15;;;;;;;;;;5134124;27;20080;-70
2023/06/19 04:03:50;;;;;;;8.00;5.50;;;;;;;;;;5113724;27;20058;-70
2023/06/19 04:06:17;;;;;;;8.82;5.65;;;;;;;;;;5105335;27;20053;-70
2023/06/19 04:08:43;;;;;;;7.65;4.28;;;;;;;;;;5132102;27;20050;-70
2023/06/19 04:11:09;;;;;;;9.45;4.57;;;;;;;;;;5136153;27;20095;-70
2023/06/19 04:13:35;;;;;;;9.25;3.80;;;;;;;;;;5132060;27;20034;-70
2023/06/19 04:16:01;;;;;;;5.55;3.45;;;;;;;;;;5130756;27;20035;-70
2023/06/19 04:18:28;;;;;;;5.43;2.97;;;;;;;;;;5133809;27;20514;-70
2023/06/19 04:20:54;;;;;;;6.32;2.90;;;;;;;;;;5128625;27;20495;-70
2023/06/19 04:23:20;;;;;;;4.95;2.88;;;;;;;;;;5122403;27;20053;-70
2023/06/19 04:25:46;;;;;;;4.70;3.00;;;;;;;;;;5150913;27;20039;-70
2023/06/19 04:28:12;;;;;;;5.97;2.90;;;;;;;;;;5139037;27;20054;-70
2023/06/19 04:30:39;;;;;;;4.78;2.85;;;;;;;;;;5132309;27;20137;-70
2023/06/19 04:33:07;;;;;;;8.38;3.55;;;;;;;;;;5126717;27;20046;-70
2023/06/19 04:35:39;;;;;;;5.85;2.83;;;;;;;;;;5143499;27;20392;-70
2023/06/19 04:38:09;;;;;;;5.70;3.10;;;;;;;;;;5144087;27;20311;-70
2023/06/19 04:40:35;;;;;;;5.20;2.95;;;;;;;;;;5134230;27;20138;-70
2023/06/19 04:43:02;;;;;;;6.05;2.75;;;;;;;;;;5133351;27;20034;-70
2023/06/19 04:45:28;;;;;;;5.25;3.30;;;;;;;;;;5114019;27;20070;-70
2023/06/19 04:47:55;;;;;;;4.82;3.33;;;;;;;;;;5135644;27;20440;-70
2023/06/19 04:50:21;;;;;;;5.38;3.17;;;;;;;;;;5118194;27;20450;-70
2023/06/19 04:52:50;;;;;;;5.38;3.35;;;;;;;;;;5117766;27;20047;-70
2023/06/19 04:55:16;;;;;;;5.25;3.33;;;;;;;;;;5138499;27;20121;-69
2023/06/19 04:57:42;;;;;;;6.88;3.20;;;;;;;;;;5135189;27;20077;-69
2023/06/19 05:00:10;;;;;;;5.38;3.40;;;;;;;;;;5138587;27;20039;-70
2023/06/19 05:02:36;;;;;;;5.10;3.20;;;;;;;;;;5137554;27;20051;-69
2023/06/19 05:05:03;;;;;;;6.47;3.50;;;;;;;;;;5134338;27;20047;-70
2023/06/19 05:07:31;;;;;;;5.85;3.30;;;;;;;;;;5113962;27;20039;-70
2023/06/19 05:09:57;;;;;;;6.53;3.75;;;;;;;;;;5135195;27;20401;-70
2023/06/19 05:12:23;;;;;;;6.75;3.65;;;;;;;;;;5118915;27;20107;-69
2023/06/19 05:14:49;;;;;;;8.05;4.40;;;;;;;;;;5114929;27;20043;-69
2023/06/19 05:17:16;;;;;;;6.10;4.00;;;;;;;;;;5103271;27;20066;-70
2023/06/19 05:19:42;;;;;;;7.80;4.30;;;;;;;;;;5149153;27;20074;-69
2023/06/19 05:22:08;;;;;;;7.13;4.60;;;;;;;;;;5147471;27;20034;-70
2023/06/19 05:24:34;;;;;;;9.15;5.13;;;;;;;;;;5147819;27;20066;-69
2023/06/19 05:27:00;;;;;;;12.73;6.00;;;;;;;;;;5144475;27;20078;-70
2023/06/19 05:29:26;;;;;;;8.18;5.82;;;;;;;;;;5122241;27;20055;-69
2023/06/19 05:31:53;;;;;;;11.10;7.10;;;;;;;;;;5154460;27;20049;-68
2023/06/19 05:34:19;;;;;;;13.05;7.88;;;;;;;;;;5136974;27;20031;-69
2023/06/19 05:36:46;;;;;;;8.73;6.93;;;;;;;;;;5156974;27;20110;-69
2023/06/19 05:39:13;;;;;;;13.13;6.32;;;;;;;;;;5146384;27;20586;-69
2023/06/19 05:41:39;;;;;;;8.73;6.35;;;;;;;;;;5154727;27;20171;-72
2023/06/19 05:44:06;;;;;;;11.40;9.10;;;;;;;;;;5153036;27;20107;-72
2023/06/19 05:46:32;;;;;;;12.30;9.57;;;;;;;;;;5143609;27;20126;-72
2023/06/19 05:48:58;;;;;;;15.20;10.40;;;;;;;;;;5124869;27;20046;-72
2023/06/19 05:51:24;;;;;;;15.00;11.90;;;;;;;;;;5127594;27;20487;-72
2023/06/19 05:53:50;;;;;;;17.10;12.10;;;;;;;;;;5126249;27;20066;-72
2023/06/19 05:56:17;;;;;;;19.50;15.48;;;;;;;;;;5124365;27;20052;-72
2023/06/19 05:58:43;;;;;;;18.65;15.27;;;;;;;;;;5108282;27;20051;-72
2023/06/19 06:01:09;;;;;;;30.27;19.75;;;;;;;;;;5127124;27;20062;-72
2023/06/19 06:03:35;;;;;;;26.65;23.73;;;;;;;;;;5127598;27;20126;-72
2023/06/19 06:06:05;;;;;;;27.70;24.50;;;;;;;;;;5102594;27;20043;-72
2023/06/19 06:08:31;;;;;;;31.70;25.70;;;;;;;;;;5130488;27;20482;-72
2023/06/19 06:10:58;;;;;;;34.03;28.50;;;;;;;;;;5118711;27;20039;-72
2023/06/19 06:13:24;;;;;;;30.65;26.88;;;;;;;;;;5139809;27;20054;-71
2023/06/19 06:15:51;;;;;;;33.20;26.27;;;;;;;;;;5136468;27;20070;-71
2023/06/19 06:18:17;;;;;;;33.05;29.15;;;;;;;;;;5134994;27;20036;-72
2023/06/19 06:20:43;;;;;;;33.10;28.10;;;;;;;;;;5135666;27;20494;-72
2023/06/19 06:23:09;;;;;;;33.20;27.83;;;;;;;;;;5121104;27;20107;-72
2023/06/19 06:25:36;;;;;;;30.85;24.73;;;;;;;;;;5116747;27;20058;-72
2023/06/19 06:28:02;;;;;;;27.73;22.55;;;;;;;;;;5116019;27;20051;-72
2023/06/19 06:30:28;;;;;;;30.52;23.27;;;;;;;;;;5134003;27;20095;-72
2023/06/19 06:32:54;;;;;;;30.08;23.17;;;;;;;;;;5118466;27;20138;-72
2023/06/19 06:35:21;;;;;;;28.58;22.15;;;;;;;;;;5134819;27;20039;-72
2023/06/19 06:37:49;;;;;;;30.63;24.00;;;;;;;;;;5117518;27;20187;-72
2023/06/19 06:40:16;;;;;;;28.50;23.88;;;;;;;;;;5119597;27;20103;-72
2023/06/19 06:42:42;;;;;;;28.40;24.08;;;;;;;;;;5116084;27;20035;-72
2023/06/19 06:45:08;;;;;;;29.48;25.45;;;;;;;;;;5115326;27;20512;-73
2023/06/19 06:47:35;;;;;;;35.60;27.05;;;;;;;;;;5115911;27;20047;-75
2023/06/19 06:50:02;;;;;;;33.13;26.83;;;;;;;;;;5134862;27;20100;-72
2023/06/19 06:52:30;;;;;;;35.00;27.48;;;;;;;;;;5144217;27;20031;-67
2023/06/19 06:54:56;;;;;;;39.13;28.20;;;;;;;;;;5149299;27;20085;-71
2023/06/19 06:57:23;;;;;;;41.55;28.95;;;;;;;;;;5129716;27;20087;-71
2023/06/19 06:59:49;;;;;;;41.17;30.83;;;;;;;;;;5136610;27;20049;-72
2023/06/19 07:02:15;;;;;;;43.78;30.52;;;;;;;;;;5123088;27;20079;-72
2023/06/19 07:04:41;;;;;;;45.45;31.10;;;;;;;;;;5134210;27;20107;-72
2023/06/19 07:07:08;;;;;;;42.97;28.40;;;;;;;;;;5117522;27;20265;-71
2023/06/19 07:09:35;;;;;;;39.60;24.35;;;;;;;;;;5124765;27;20055;-72
2023/06/19 07:12:04;;;;;;;37.72;24.25;;;;;;;;;;5130339;27;20035;-71
2023/06/19 07:14:30;;;;;;;40.85;24.55;;;;;;;;;;5150241;27;20047;-68
2023/06/19 07:16:56;;;;;;;37.42;25.40;;;;;;;;;;5150047;27;20094;-68
2023/06/19 07:19:22;;;;;;;35.17;23.67;;;;;;;;;;5147708;27;20038;-69
2023/06/19 07:21:50;;;;;;;38.03;23.85;;;;;;;;;;5151077;27;20038;-68
2023/06/19 07:24:16;;;;;;;40.20;24.63;;;;;;;;;;5133662;27;20392;-68
2023/06/19 07:26:43;;;;;;;35.95;24.25;;;;;;;;;;5151751;27;20127;-68
2023/06/19 07:29:09;;;;;;;32.88;21.15;;;;;;;;;;5112244;27;20141;-69
2023/06/19 07:31:35;;;;;;;36.40;23.15;;;;;;;;;;5152438;27;20039;-69
2023/06/19 07:34:02;;;;;;;38.42;24.50;;;;;;;;;;5150529;27;20465;-68
2023/06/19 07:36:28;;;;;;;42.80;24.13;;;;;;;;;;5151832;27;20486;-69
2023/06/19 07:38:56;;;;;;;36.28;22.83;;;;;;;;;;5129991;27;20370;-69
2023/06/19 07:41:22;;;;;;;34.22;20.67;;;;;;;;;;5132957;27;20119;-69
2023/06/19 07:43:48;;;;;;;32.88;20.58;;;;;;;;;;5152152;27;20123;-69
2023/06/19 07:46:15;;;;;;;32.42;21.33;;;;;;;;;;5132421;27;20053;-69
2023/06/19 07:48:41;;;;;;;34.38;21.20;;;;;;;;;;5148586;27;20061;-69
2023/06/19 07:51:07;;;;;;;29.80;19.77;;;;;;;;;;5151901;27;20034;-69
2023/06/19 07:53:33;;;;;;;34.47;22.73;;;;;;;;;;5129127;27;20387;-69
2023/06/19 07:56:00;;;;;;;29.25;20.17;;;;;;;;;;5134135;27;20371;-68
2023/06/19 07:58:26;;;;;;;32.05;20.27;;;;;;;;;;5133326;27;20070;-68
2023/06/19 08:00:52;;;;;;;25.95;19.15;;;;;;;;;;5133102;27;20038;-68
2023/06/19 08:03:18;;;;;;;25.77;18.08;;;;;;;;;;5134990;27;20050;-68
2023/06/19 08:05:44;;;;;;;21.42;15.88;;;;;;;;;;5153686;27;20039;-70
2023/06/19 08:08:13;;;;;;;24.05;15.95;;;;;;;;;;5133326;27;20038;-70
2023/06/19 08:10:40;;;;;;;24.38;16.73;;;;;;;;;;5146625;27;20039;-68
2023/06/19 08:13:07;;;;;;;22.08;15.20;;;;;;;;;;5146096;27;20489;-68
2023/06/19 08:15:33;;;;;;;22.23;15.18;;;;;;;;;;5128162;27;20408;-68
2023/06/19 08:17:59;;;;;;;21.17;13.50;;;;;;;;;;5121043;27;20088;-68
2023/06/19 08:20:26;;;;;;;19.65;13.80;;;;;;;;;;5148914;27;20046;-68
2023/06/19 08:22:52;;;;;;;21.23;13.00;;;;;;;;;;5134174;27;20038;-67
2023/06/19 08:25:18;;;;;;;16.77;11.95;;;;;;;;;;5154787;27;20042;-71
2023/06/19 08:27:45;;;;;;;17.08;12.95;;;;;;;;;;5111449;27;20051;-68
2023/06/19 08:30:12;;;;;;;21.23;12.98;;;;;;;;;;5138668;27;20078;-67
2023/06/19 08:32:38;;;;;;;16.83;13.82;;;;;;;;;;5130269;27;20061;-68
2023/06/19 08:35:05;;;;;;;20.55;14.05;;;;;;;;;;5123428;27;20042;-68
2023/06/19 08:37:31;;;;;;;18.67;14.07;;;;;;;;;;5132921;27;20095;-68
2023/06/19 08:39:57;;;;;;;22.65;14.18;;;;;;;;;;5139262;27;20466;-68
2023/06/19 08:42:23;;;;;;;20.92;15.02;;;;;;;;;;5139507;27;20080;-68
2023/06/19 08:44:50;;;;;;;19.70;14.15;;;;;;;;;;5101944;27;20065;-68
2023/06/19 08:47:16;;;;;;;20.23;13.35;;;;;;;;;;5109934;27;20129;-68
2023/06/19 08:49:43;;;;;;;27.50;16.08;;;;;;;;;;5119262;27;20053;-68
2023/06/19 08:52:09;;;;;;;19.30;12.93;;;;;;;;;;5131795;27;20088;-68
2023/06/19 08:54:43;;;;;;;23.08;13.55;;;;;;;;;;5124587;27;20050;-68
2023/06/19 08:57:11;;;;;;;19.20;14.55;;;;;;;;;;5132849;27;20061;-68
2023/06/19 08:59:37;;;;;;;20.38;14.10;;;;;;;;;;5116961;27;20126;-68
2023/06/19 09:02:03;;;;;;;21.33;14.18;;;;;;;;;;5109599;27;20050;-68
2023/06/19 09:04:31;;;;;;;17.52;13.40;;;;;;;;;;5133946;27;20137;-68
2023/06/19 09:06:58;;;;;;;21.35;15.18;;;;;;;;;;5132848;27;20034;-68
2023/06/19 09:09:25;;;;;;;20.80;13.32;;;;;;;;;;5133286;27;20065;-68
2023/06/19 09:11:59;;;;;;;21.90;14.23;;;;;;;;;;5150043;27;20435;-68
2023/06/19 09:14:32;;;;;;;20.77;13.63;;;;;;;;;;5152744;27;20083;-68
2023/06/19 09:16:58;;;;;;;;;;;;;;;;;;5134727;27;20050;-68
2023/06/19 09:19:24;;;;;;;21.98;12.70;;;;;;;;;;5150411;27;19971;-66
2023/06/19 09:21:50;;;;;;;19.70;13.90;;;;;;;;;;5153826;27;20378;-67
2023/06/19 09:24:17;;;;;;;26.92;15.07;;;;;;;;;;5153062;27;20121;-67
2023/06/19 09:26:43;;;;;;;24.38;14.25;;;;;;;;;;5133292;27;20042;-67
2023/06/19 09:29:13;;;;;;;17.88;12.85;;;;;;;;;;5116337;28;20056;-67
2023/06/19 09:31:41;;;;;;;22.88;14.68;;;;;;;;;;5101958;27;20440;-67
2023/06/19 09:34:08;;;;;;;20.27;12.20;;;;;;;;;;5118752;27;20035;-67
2023/06/19 09:36:35;;;;;;;20.48;12.82;;;;;;;;;;5134907;27;20458;-67
2023/06/19 09:39:04;;;;;;;21.27;12.98;;;;;;;;;;5132813;27;20049;-67
2023/06/19 09:41:31;;;;;;;25.65;13.57;;;;;;;;;;5134165;27;20042;-67
2023/06/19 09:43:59;;;;;;;18.90;11.40;;;;;;;;;;5135615;27;20148;-67
2023/06/19 09:46:36;;;;;;;19.67;12.68;;;;;;;;;;5116899;27;20044;-67
2023/06/19 09:49:04;;;;;;;17.25;12.25;;;;;;;;;;5104335;28;20044;-67
2023/06/19 09:51:32;;;;;;;21.20;13.10;;;;;;;;;;5121094;27;20035;-67
2023/06/19 09:54:00;;;;;;;21.30;13.32;;;;;;;;;;5119176;27;20552;-67
2023/06/19 09:56:28;;;;;;;19.67;13.50;;;;;;;;;;5119459;27;20104;-67
2023/06/19 09:58:55;;;;;;;22.13;13.45;;;;;;;;;;5123331;27;20101;-67
2023/06/19 10:01:21;;;;;;;25.88;13.82;;;;;;;;;;5130704;27;20122;-67
2023/06/19 10:03:48;;;;;;;22.27;15.45;;;;;;;;;;5123744;27;20373;-67
2023/06/19 10:06:15;;;;;;;19.55;13.63;;;;;;;;;;5126024;27;20039;-67
2023/06/19 10:08:43;;;;;;;21.23;14.40;;;;;;;;;;5132488;27;20061;-67
2023/06/19 10:11:10;;;;;;;21.95;14.68;;;;;;;;;;5134082;27;20039;-67
2023/06/19 10:13:41;;;;;;;22.52;14.90;;;;;;;;;;5135267;27;20069;-67
2023/06/19 10:16:07;;;;;;;23.35;15.45;;;;;;;;;;5133385;27;20115;-67
2023/06/19 10:18:45;;;;;;;20.30;14.77;;;;;;;;;;5128922;27;20047;-67
2023/06/19 10:21:18;;;;;;;20.23;13.45;;;;;;;;;;5120152;27;20118;-67
2023/06/19 10:23:53;;;;;;;21.52;13.65;;;;;;;;;;5119063;27;20125;-67
2023/06/19 10:26:21;;;;;;;19.60;11.93;;;;;;;;;;5133428;27;20054;-67
2023/06/19 10:28:48;;;;;;;18.70;12.02;;;;;;;;;;5123965;27;20189;-67
2023/06/19 10:31:14;;;;;;;28.02;12.95;;;;;;;;;;5131977;27;20099;-66
2023/06/19 10:33:40;;;;;;;21.40;14.18;;;;;;;;;;5119704;27;20130;-66
2023/06/19 10:36:16;;;;;;;16.17;12.35;;;;;;;;;;5121470;27;20043;-65
2023/06/19 10:38:49;;;;;;;16.60;12.20;;;;;;;;;;5129965;27;20051;-66
2023/06/19 10:41:22;;;;;;;19.35;12.07;;;;;;;;;;5132856;27;20043;-66
2023/06/19 10:43:54;;;;;;;15.20;12.15;;;;;;;;;;5134214;27;20054;-66
2023/06/19 10:46:23;;;;;;;16.40;11.07;;;;;;;;;;5133218;27;20043;-66
2023/06/19 10:48:49;;;;;;;16.00;12.13;;;;;;;;;;5117903;27;20050;-66
2023/06/19 10:51:22;;;;;;;19.83;11.45;;;;;;;;;;5125161;27;20105;-66
2023/06/19 10:53:48;;;;;;;21.00;13.15;;;;;;;;;;5119440;27;20509;-66
2023/06/19 10:56:14;;;;;;;18.55;13.52;;;;;;;;;;5139689;27;20072;-66
2023/06/19 10:58:40;;;;;;;18.75;13.65;;;;;;;;;;5134769;27;20099;-71
2023/06/19 11:01:06;;;;;;;17.02;13.43;;;;;;;;;;5131477;27;20039;-66
2023/06/19 11:03:34;;;;;;;21.95;14.90;;;;;;;;;;5131912;27;20047;-66
2023/06/19 11:06:00;;;;;;;18.40;13.65;;;;;;;;;;5106344;28;20039;-66
2023/06/19 11:08:26;;;;;;;22.67;15.02;;;;;;;;;;5119844;27;20103;-66
2023/06/19 11:10:53;;;;;;;21.83;15.73;;;;;;;;;;5129833;27;20057;-66
2023/06/19 11:13:20;;;;;;;20.48;14.15;;;;;;;;;;5134107;27;20569;-66
2023/06/19 11:15:46;;;;;;;19.02;14.77;;;;;;;;;;5134093;27;20043;-66
2023/06/19 11:18:12;;;;;;;22.90;17.05;;;;;;;;;;5121630;27;20035;-66
2023/06/19 11:20:45;;;;;;;21.38;15.00;;;;;;;;;;5127555;27;20043;-66
2023/06/19 11:23:12;;;;;;;21.50;14.55;;;;;;;;;;5120854;27;20115;-66
2023/06/19 11:25:38;;;;;;;24.40;16.02;;;;;;;;;;5133034;27;20050;-66
2023/06/19 11:28:11;;;;;;;20.65;14.30;;;;;;;;;;5131086;27;20055;-67
2023/06/19 11:30:37;;;;;;;20.85;15.20;;;;;;;;;;5125816;27;20054;-66
2023/06/19 11:33:03;;;;;;;18.40;13.98;;;;;;;;;;5118106;27;20108;-66
2023/06/19 11:35:39;;;;;;;16.92;12.80;;;;;;;;;;5124015;27;20040;-66
2023/06/19 11:38:05;;;;;;;;;;;;;;;;;;5114433;27;20039;-67
2023/06/19 11:40:39;;;;;;;19.25;11.45;;;;;;;;;;5129689;27;20018;-67
2023/06/19 11:43:05;;;;;;;14.50;11.57;;;;;;;;;;5133505;27;20399;-66
2023/06/19 11:45:31;;;;;;;12.52;10.35;;;;;;;;;;5133736;27;20127;-66
2023/06/19 11:47:57;;;;;;;14.73;10.13;;;;;;;;;;5123666;27;20032;-67
2023/06/19 11:50:27;;;;;;;14.73;9.82;;;;;;;;;;5129401;27;20091;-66
2023/06/19 11:52:53;;;;;;;14.43;9.63;;;;;;;;;;5127780;27;20039;-66
2023/06/19 11:55:20;;;;;;;10.88;8.85;;;;;;;;;;5142701;27;20065;-66
2023/06/19 11:57:47;;;;;;;13.20;9.18;;;;;;;;;;5132335;27;20061;-66
2023/06/19 12:00:17;;;;;;;11.63;9.32;;;;;;;;;;5115591;27;20491;-66
2023/06/19 12:02:45;;;;;;;11.13;8.32;;;;;;;;;;5134377;27;20046;-66
2023/06/19 12:05:11;;;;;;;10.13;7.47;;;;;;;;;;5125312;27;20515;-66
2023/06/19 12:07:37;;;;;;;13.18;8.00;;;;;;;;;;5132230;27;20046;-67
2023/06/19 12:10:09;;;;;;;10.35;7.95;;;;;;;;;;5129371;27;20065;-66
2023/06/19 12:12:36;;;;;;;12.57;7.95;;;;;;;;;;5131595;27;20085;-67
2023/06/19 12:15:02;;;;;;;12.40;8.43;;;;;;;;;;5121860;27;20056;-66
2023/06/19 12:17:29;;;;;;;12.70;8.10;;;;;;;;;;5128551;27;20074;-67
2023/06/19 12:19:56;;;;;;;10.30;8.00;;;;;;;;;;5126105;27;20074;-67
2023/06/19 12:22:22;;;;;;;10.50;8.48;;;;;;;;;;5133633;27;20046;-66
2023/06/19 12:24:48;;;;;;;12.63;8.50;;;;;;;;;;5129834;27;20049;-67
2023/06/19 12:27:15;;;;;;;9.02;6.80;;;;;;;;;;5128420;27;20055;-67
2023/06/19 12:29:41;;;;;;;9.40;6.30;;;;;;;;;;5128281;27;20058;-66
2023/06/19 12:32:07;;;;;;;10.50;6.18;;;;;;;;;;5128132;27;20194;-67
2023/06/19 12:34:33;;;;;;;10.95;7.00;;;;;;;;;;5141226;27;20043;-67
2023/06/19 12:37:00;;;;;;;12.27;6.15;;;;;;;;;;5141422;27;20039;-68
2023/06/19 12:39:26;;;;;;;10.02;6.65;;;;;;;;;;5140241;27;20213;-67
2023/06/19 12:41:53;;;;;;;10.57;6.43;;;;;;;;;;5125370;27;20046;-67
2023/06/19 12:44:19;;;;;;;9.77;6.72;;;;;;;;;;5112436;27;20114;-67
2023/06/19 12:46:45;;;;;;;9.90;6.70;;;;;;;;;;5123143;27;20083;-67
2023/06/19 12:49:11;;;;;;;7.82;5.72;;;;;;;;;;5098042;28;20039;-67
2023/06/19 12:51:37;;;;;;;8.80;6.50;;;;;;;;;;5117221;27;20042;-67
2023/06/19 12:54:04;;;;;;;12.55;6.60;;;;;;;;;;5121237;27;20035;-67
2023/06/19 12:56:30;;;;;;;7.95;5.50;;;;;;;;;;5134079;27;20053;-67
2023/06/19 12:58:56;;;;;;;7.13;5.38;;;;;;;;;;5150052;27;20126;-67
2023/06/19 13:01:22;;;;;;;7.78;5.75;;;;;;;;;;5109960;28;20450;-66
2023/06/19 13:03:49;;;;;;;7.68;5.53;;;;;;;;;;5146560;27;20039;-67
2023/06/19 13:06:15;;;;;;;8.13;6.10;;;;;;;;;;5154966;27;20034;-67
2023/06/19 13:08:41;;;;;;;8.85;5.35;;;;;;;;;;5137670;27;20478;-66
2023/06/19 13:11:07;;;;;;;8.13;5.43;;;;;;;;;;5144409;27;20035;-67
2023/06/19 13:13:33;;;;;;;6.97;5.18;;;;;;;;;;5156601;27;20132;-67
2023/06/19 13:15:59;;;;;;;7.97;5.70;;;;;;;;;;5137414;27;20338;-67
2023/06/19 13:18:25;;;;;;;7.82;5.43;;;;;;;;;;5145561;27;20106;-67
2023/06/19 13:20:52;;;;;;;7.95;5.10;;;;;;;;;;5158469;27;20042;-67
2023/06/19 13:23:18;;;;;;;7.20;4.93;;;;;;;;;;5138643;27;20350;-67
2023/06/19 13:25:44;;;;;;;7.65;5.65;;;;;;;;;;5156305;27;20030;-67
2023/06/19 13:28:10;;;;;;;6.90;5.45;;;;;;;;;;5142582;27;20046;-67
2023/06/19 13:30:36;;;;;;;10.40;6.72;;;;;;;;;;5156569;27;20043;-67
2023/06/19 13:33:03;;;;;;;9.85;6.90;;;;;;;;;;5135825;27;20087;-67
2023/06/19 13:35:30;;;;;;;7.78;5.47;;;;;;;;;;5145787;27;20035;-67
2023/06/19 13:37:56;;;;;;;11.55;7.18;;;;;;;;;;5152871;27;20169;-67
2023/06/19 13:40:22;;;;;;;10.52;6.43;;;;;;;;;;5137010;27;20177;-67
2023/06/19 13:42:49;;;;;;;8.18;5.15;;;;;;;;;;5156107;27;20038;-67
2023/06/19 13:45:15;;;;;;;9.82;5.95;;;;;;;;;;5155750;27;20023;-67
2023/06/19 13:47:41;;;;;;;9.35;6.20;;;;;;;;;;5132370;27;20106;-67
2023/06/19 13:50:08;;;;;;;9.85;6.05;;;;;;;;;;5137828;27;20486;-67
2023/06/19 13:52:36;;;;;;;7.55;5.53;;;;;;;;;;5129927;27;20569;-67
2023/06/19 13:55:02;;;;;;;10.27;6.13;;;;;;;;;;5149475;27;20039;-67
2023/06/19 13:57:28;;;;;;;8.95;5.20;;;;;;;;;;5129699;27;20434;-67
2023/06/19 13:59:54;;;;;;;9.32;5.38;;;;;;;;;;5155302;27;20113;-67
2023/06/19 14:02:20;;;;;;;9.35;5.22;;;;;;;;;;5132864;27;20075;-67
2023/06/19 14:04:47;;;;;;;7.13;5.13;;;;;;;;;;5153887;27;20050;-68
2023/06/19 14:07:13;;;;;;;7.60;4.60;;;;;;;;;;5144671;27;20087;-67
2023/06/19 14:09:39;;;;;;;5.05;3.92;;;;;;;;;;5137430;27;20450;-67
2023/06/19 14:12:06;;;;;;;8.02;4.57;;;;;;;;;;5116913;27;20067;-67
2023/06/19 14:14:32;;;;;;;9.68;5.18;;;;;;;;;;5155288;27;20075;-67
2023/06/19 14:16:58;;;;;;;7.38;4.43;;;;;;;;;;5149264;27;20119;-67
2023/06/19 14:19:24;;;;;;;8.02;4.03;;;;;;;;;;5158187;27;20039;-67
2023/06/19 14:21:51;;;;;;;10.38;5.25;;;;;;;;;;5136424;27;20039;-67
2023/06/19 14:24:17;;;;;;;8.32;5.00;;;;;;;;;;5151430;27;20512;-67
2023/06/19 14:26:44;;;;;;;7.53;5.00;;;;;;;;;;5125396;27;20387;-67
2023/06/19 14:29:10;;;;;;;6.88;4.40;;;;;;;;;;5120070;27;20057;-67